Στοιχεία αεροπορικών μετεωρολογικών δεδομένων METAR     EFOU Oulu Airport
θερμοκρασία
20°C θερμοκρασία
16°C Σημείο δρόσου
78% Υγρασία



Ανεμος
4 M/S
8 MPH
13 KM/H
7 KTS



200°
NND
Τρέχουσες συνθήκες

Μερικώς συννεφιασμένος Μερικώς συννεφιασμένος
πίεση 1012.92 (hPa) - 29.91 (inHg)
Ορατότητα 6.2 (μίλι) - 10 (km)
Aεροδρόμιο
Κωδικός αεροδρομίου EFOU

Τοποθεσία: Oulu Airport
Απόσταση: 83 (km)

Metar:
EFOU 030550Z AUTO 20007KT 170V230 9999 FEW012 20/16 Q1013

ώρα: 03-07-2022 08:50 EEST